sensor_id;sensor_type;location;lat;lon;timestamp;pressure;altitude;pressure_sealevel;temperature;humidity
75317;BME280;63913;51.492;10.368;2023-05-10T00:00:22;97630.53;;;13.90;50.76
75317;BME280;63913;51.492;10.368;2023-05-10T00:02:49;97621.00;;;13.99;50.60
75317;BME280;63913;51.492;10.368;2023-05-10T00:05:15;97628.75;;;13.98;50.68
75317;BME280;63913;51.492;10.368;2023-05-10T00:07:40;97614.97;;;13.96;50.63
75317;BME280;63913;51.492;10.368;2023-05-10T00:10:06;97625.34;;;13.94;50.30
75317;BME280;63913;51.492;10.368;2023-05-10T00:12:31;97623.63;;;13.93;51.12
75317;BME280;63913;51.492;10.368;2023-05-10T00:14:57;97621.91;;;13.94;51.33
75317;BME280;63913;51.492;10.368;2023-05-10T00:17:22;97615.84;;;13.98;50.84
75317;BME280;63913;51.492;10.368;2023-05-10T00:19:47;97620.16;;;13.96;50.52
75317;BME280;63913;51.492;10.368;2023-05-10T00:22:13;97615.88;;;13.93;50.80
75317;BME280;63913;51.492;10.368;2023-05-10T00:24:38;97611.56;;;13.91;50.90
75317;BME280;63913;51.492;10.368;2023-05-10T00:27:04;97610.72;;;13.92;50.86
75317;BME280;63913;51.492;10.368;2023-05-10T00:29:30;97620.22;;;13.84;51.40
75317;BME280;63913;51.492;10.368;2023-05-10T00:31:55;97606.44;;;13.82;51.40
75317;BME280;63913;51.492;10.368;2023-05-10T00:34:21;97609.03;;;13.80;51.76
75317;BME280;63913;51.492;10.368;2023-05-10T00:36:47;97600.47;;;13.73;50.48
75317;BME280;63913;51.492;10.368;2023-05-10T00:39:12;97602.22;;;13.68;51.39
75317;BME280;63913;51.492;10.368;2023-05-10T00:41:37;97597.94;;;13.61;51.14
75317;BME280;63913;51.492;10.368;2023-05-10T00:44:04;97603.09;;;13.67;52.48
75317;BME280;63913;51.492;10.368;2023-05-10T00:46:30;97596.19;;;13.66;51.85
75317;BME280;63913;51.492;10.368;2023-05-10T00:48:57;97596.16;;;13.71;51.71
75317;BME280;63913;51.492;10.368;2023-05-10T00:51:23;97588.41;;;13.71;51.40
75317;BME280;63913;51.492;10.368;2023-05-10T00:53:49;97587.53;;;13.73;51.49
75317;BME280;63913;51.492;10.368;2023-05-10T00:56:15;97587.53;;;13.70;51.76
75317;BME280;63913;51.492;10.368;2023-05-10T00:58:41;97591.94;;;13.56;52.29
75317;BME280;63913;51.492;10.368;2023-05-10T01:01:08;97587.63;;;13.57;52.47
75317;BME280;63913;51.492;10.368;2023-05-10T01:03:34;97584.19;;;13.58;52.38
75317;BME280;63913;51.492;10.368;2023-05-10T01:06:01;97583.31;;;13.56;52.00
75317;BME280;63913;51.492;10.368;2023-05-10T01:08:26;97586.75;;;13.55;52.30
75317;BME280;63913;51.492;10.368;2023-05-10T01:10:53;97577.31;;;13.51;52.54
75317;BME280;63913;51.492;10.368;2023-05-10T01:13:37;97582.50;;;13.46;52.88
75317;BME280;63913;51.492;10.368;2023-05-10T01:16:03;97577.31;;;13.49;53.03
75317;BME280;63913;51.492;10.368;2023-05-10T01:18:30;97571.34;;;13.41;53.03
75317;BME280;63913;51.492;10.368;2023-05-10T01:21:04;97580.84;;;13.33;53.52
75317;BME280;63913;51.492;10.368;2023-05-10T01:26:37;97586.84;;;13.30;54.32
75317;BME280;63913;51.492;10.368;2023-05-10T01:34:20;97592.03;;;13.27;54.46
75317;BME280;63913;51.492;10.368;2023-05-10T01:36:55;97585.16;;;13.22;54.54
75317;BME280;63913;51.492;10.368;2023-05-10T01:39:36;97586.03;;;13.15;55.05
75317;BME280;63913;51.492;10.368;2023-05-10T01:42:10;97586.03;;;13.12;54.92
75317;BME280;63913;51.492;10.368;2023-05-10T01:50:10;97582.59;;;13.08;55.89
75317;BME280;63913;51.492;10.368;2023-05-10T01:52:47;97573.16;;;13.01;55.70
75317;BME280;63913;51.492;10.368;2023-05-10T01:55:16;97572.28;;;13.04;55.82
75317;BME280;63913;51.492;10.368;2023-05-10T01:57:44;97575.75;;;13.04;55.83
75317;BME280;63913;51.492;10.368;2023-05-10T02:00:11;97574.88;;;13.05;56.23
75317;BME280;63913;51.492;10.368;2023-05-10T02:02:45;97574.88;;;13.05;56.11
75317;BME280;63913;51.492;10.368;2023-05-10T02:05:12;97573.16;;;12.99;56.43
75317;BME280;63913;51.492;10.368;2023-05-10T02:07:39;97579.19;;;13.03;55.75
75317;BME280;63913;51.492;10.368;2023-05-10T02:10:07;97568.00;;;13.04;56.08
75317;BME280;63913;51.492;10.368;2023-05-10T02:12:38;97577.44;;;13.00;56.29
75317;BME280;63913;51.492;10.368;2023-05-10T02:15:05;97572.28;;;12.97;56.94
75317;BME280;63913;51.492;10.368;2023-05-10T02:17:32;97568.88;;;12.95;56.84
75317;BME280;63913;51.492;10.368;2023-05-10T02:19:59;97579.19;;;12.97;56.55
75317;BME280;63913;51.492;10.368;2023-05-10T02:22:27;97565.41;;;12.98;56.30
75317;BME280;63913;51.492;10.368;2023-05-10T02:24:55;97571.44;;;13.00;56.28
75317;BME280;63913;51.492;10.368;2023-05-10T02:27:22;97578.34;;;12.89;56.04
75317;BME280;63913;51.492;10.368;2023-05-10T02:29:50;97576.63;;;12.95;56.62
75317;BME280;63913;51.492;10.368;2023-05-10T02:32:16;97573.19;;;12.83;56.46
75317;BME280;63913;51.492;10.368;2023-05-10T02:34:43;97577.50;;;12.79;56.81
75317;BME280;63913;51.492;10.368;2023-05-10T02:37:12;97574.91;;;12.85;56.70
75317;BME280;63913;51.492;10.368;2023-05-10T02:39:39;97582.63;;;12.93;56.59
75317;BME280;63913;51.492;10.368;2023-05-10T02:42:11;97585.19;;;12.97;56.71
75317;BME280;63913;51.492;10.368;2023-05-10T02:44:40;97587.78;;;12.99;57.07
75317;BME280;63913;51.492;10.368;2023-05-10T02:47:07;97581.75;;;13.00;56.69
75317;BME280;63913;51.492;10.368;2023-05-10T02:49:32;97575.75;;;12.96;56.65
75317;BME280;63913;51.492;10.368;2023-05-10T02:52:01;97579.16;;;12.98;56.72
75317;BME280;63913;51.492;10.368;2023-05-10T02:54:31;97579.19;;;13.02;56.77
75317;BME280;63913;51.492;10.368;2023-05-10T02:56:58;97583.47;;;13.04;57.66
75317;BME280;63913;51.492;10.368;2023-05-10T02:59:25;97577.47;;;13.04;57.90
75317;BME280;63913;51.492;10.368;2023-05-10T03:01:51;97579.19;;;13.05;58.70
75317;BME280;63913;51.492;10.368;2023-05-10T03:04:17;97578.34;;;12.96;59.93
75317;BME280;63913;51.492;10.368;2023-05-10T03:06:42;97581.75;;;13.03;60.32
75317;BME280;63913;51.492;10.368;2023-05-10T03:09:09;97577.47;;;13.05;61.59
75317;BME280;63913;51.492;10.368;2023-05-10T03:11:46;97567.13;;;13.04;62.62
75317;BME280;63913;51.492;10.368;2023-05-10T03:14:16;97577.47;;;13.02;63.17
75317;BME280;63913;51.492;10.368;2023-05-10T03:16:46;97579.16;;;12.98;63.47
75317;BME280;63913;51.492;10.368;2023-05-10T03:19:21;97576.59;;;13.00;64.79
75317;BME280;63913;51.492;10.368;2023-05-10T03:21:50;97586.06;;;12.95;64.76
75317;BME280;63913;51.492;10.368;2023-05-10T03:24:20;97581.75;;;12.91;65.80
75317;BME280;63913;51.492;10.368;2023-05-10T03:26:48;97577.50;;;12.76;67.12
75317;BME280;63913;51.492;10.368;2023-05-10T03:29:17;97574.91;;;12.82;66.12
75317;BME280;63913;51.492;10.368;2023-05-10T03:31:42;97562.88;;;12.86;66.55
75317;BME280;63913;51.492;10.368;2023-05-10T03:34:08;97555.97;;;12.83;66.28
75317;BME280;63913;51.492;10.368;2023-05-10T03:36:33;97556.84;;;12.85;66.68
75317;BME280;63913;51.492;10.368;2023-05-10T03:38:58;97568.91;;;12.80;66.19
75317;BME280;63913;51.492;10.368;2023-05-10T03:41:24;97571.50;;;12.80;67.58
75317;BME280;63913;51.492;10.368;2023-05-10T03:43:51;97580.06;;;12.75;65.60
75317;BME280;63913;51.492;10.368;2023-05-10T03:46:16;97569.75;;;12.76;65.99
75317;BME280;63913;51.492;10.368;2023-05-10T03:48:42;97579.25;;;12.73;65.54
75317;BME280;63913;51.492;10.368;2023-05-10T03:51:07;97583.53;;;12.71;66.21
75317;BME280;63913;51.492;10.368;2023-05-10T03:53:32;97581.81;;;12.68;65.18
75317;BME280;63913;51.492;10.368;2023-05-10T03:55:58;97574.06;;;12.71;65.39
75317;BME280;63913;51.492;10.368;2023-05-10T03:58:23;97571.50;;;12.73;65.38
75317;BME280;63913;51.492;10.368;2023-05-10T04:00:48;97568.91;;;12.71;65.65
75317;BME280;63913;51.492;10.368;2023-05-10T04:03:14;97564.63;;;12.70;65.65
75317;BME280;63913;51.492;10.368;2023-05-10T04:05:39;97563.75;;;12.71;65.55
75317;BME280;63913;51.492;10.368;2023-05-10T04:08:05;97568.06;;;12.71;65.73
75317;BME280;63913;51.492;10.368;2023-05-10T04:10:31;97571.50;;;12.73;65.60
75317;BME280;63913;51.492;10.368;2023-05-10T04:12:57;97565.47;;;12.72;64.95
75317;BME280;63913;51.492;10.368;2023-05-10T04:15:22;97563.75;;;12.73;65.51
75317;BME280;63913;51.492;10.368;2023-05-10T04:17:48;97556.88;;;12.79;65.53
75317;BME280;63913;51.492;10.368;2023-05-10T04:20:13;97562.00;;;12.85;65.65
75317;BME280;63913;51.492;10.368;2023-05-10T04:22:39;97561.13;;;12.92;66.05
75317;BME280;63913;51.492;10.368;2023-05-10T04:25:05;97571.44;;;13.02;65.86
75317;BME280;63913;51.492;10.368;2023-05-10T04:27:31;97574.88;;;13.05;66.23
75317;BME280;63913;51.492;10.368;2023-05-10T04:29:57;97572.28;;;13.07;65.85
75317;BME280;63913;51.492;10.368;2023-05-10T04:32:22;97579.16;;;13.11;65.33
75317;BME280;63913;51.492;10.368;2023-05-10T04:34:48;97579.16;;;13.12;64.99
75317;BME280;63913;51.492;10.368;2023-05-10T04:37:14;97581.75;;;13.14;65.28
75317;BME280;63913;51.492;10.368;2023-05-10T04:39:39;97583.47;;;13.18;65.15
75317;BME280;63913;51.492;10.368;2023-05-10T04:42:05;97580.03;;;13.19;65.21
75317;BME280;63913;51.492;10.368;2023-05-10T04:44:31;97579.16;;;13.21;64.58
75317;BME280;63913;51.492;10.368;2023-05-10T04:46:57;97575.72;;;13.21;64.77
75317;BME280;63913;51.492;10.368;2023-05-10T04:49:22;97576.56;;;13.24;64.74
75317;BME280;63913;51.492;10.368;2023-05-10T04:51:47;97574.84;;;13.25;64.77
75317;BME280;63913;51.492;10.368;2023-05-10T04:54:13;97579.13;;;13.27;64.89
75317;BME280;63913;51.492;10.368;2023-05-10T04:56:38;97567.94;;;13.27;65.20
75317;BME280;63913;51.492;10.368;2023-05-10T04:59:03;97573.94;;;13.30;65.93
75317;BME280;63913;51.492;10.368;2023-05-10T05:01:29;97577.38;;;13.32;66.13
75317;BME280;63913;51.492;10.368;2023-05-10T05:03:54;97575.66;;;13.30;67.01
75317;BME280;63913;51.492;10.368;2023-05-10T05:06:19;97581.69;;;13.33;67.50
75317;BME280;63913;51.492;10.368;2023-05-10T05:08:46;97580.84;;;13.34;67.83
75317;BME280;63913;51.492;10.368;2023-05-10T05:11:11;97585.13;;;13.35;68.59
75317;BME280;63913;51.492;10.368;2023-05-10T05:13:37;97590.31;;;13.25;70.01
75317;BME280;63913;51.492;10.368;2023-05-10T05:16:02;97588.59;;;13.24;71.67
75317;BME280;63913;51.492;10.368;2023-05-10T05:18:28;97598.94;;;13.15;72.82
75317;BME280;63913;51.492;10.368;2023-05-10T05:20:53;97603.25;;;13.05;74.40
75317;BME280;63913;51.492;10.368;2023-05-10T05:23:19;97599.81;;;13.05;75.65
75317;BME280;63913;51.492;10.368;2023-05-10T05:25:46;97602.41;;;13.03;76.55
75317;BME280;63913;51.492;10.368;2023-05-10T05:28:11;97612.72;;;13.05;76.86
75317;BME280;63913;51.492;10.368;2023-05-10T05:30:37;97623.91;;;13.13;77.26
75317;BME280;63913;51.492;10.368;2023-05-10T05:33:03;97617.00;;;13.12;79.08
75317;BME280;63913;51.492;10.368;2023-05-10T05:35:28;97616.16;;;13.05;79.57
75317;BME280;63913;51.492;10.368;2023-05-10T05:37:53;97623.06;;;12.92;79.48
75317;BME280;63913;51.492;10.368;2023-05-10T05:40:19;97623.06;;;12.88;80.16
75317;BME280;63913;51.492;10.368;2023-05-10T05:42:45;97630.81;;;12.86;81.86
75317;BME280;63913;51.492;10.368;2023-05-10T05:45:11;97623.94;;;12.67;82.13
75317;BME280;63913;51.492;10.368;2023-05-10T05:47:39;97635.09;;;12.60;82.62
75317;BME280;63913;51.492;10.368;2023-05-10T05:50:05;97639.41;;;12.66;83.61
75317;BME280;63913;51.492;10.368;2023-05-10T05:52:30;97636.81;;;12.69;84.23
75317;BME280;63913;51.492;10.368;2023-05-10T05:54:56;97636.84;;;12.64;84.26
75317;BME280;63913;51.492;10.368;2023-05-10T05:57:21;97644.56;;;12.61;84.74
75317;BME280;63913;51.492;10.368;2023-05-10T05:59:46;97646.28;;;12.59;84.35
75317;BME280;63913;51.492;10.368;2023-05-10T06:02:12;97646.28;;;12.64;83.68
75317;BME280;63913;51.492;10.368;2023-05-10T06:04:38;97648.00;;;12.80;84.70
75317;BME280;63913;51.492;10.368;2023-05-10T06:07:03;97653.16;;;12.75;85.04
75317;BME280;63913;51.492;10.368;2023-05-10T06:09:28;97654.03;;;12.70;84.92
75317;BME280;63913;51.492;10.368;2023-05-10T06:11:54;97657.47;;;12.72;84.83
75317;BME280;63913;51.492;10.368;2023-05-10T06:14:20;97661.78;;;12.79;84.78
75317;BME280;63913;51.492;10.368;2023-05-10T06:16:46;97664.34;;;12.83;85.30
75317;BME280;63913;51.492;10.368;2023-05-10T06:19:11;97665.22;;;12.87;85.48
75317;BME280;63913;51.492;10.368;2023-05-10T06:21:36;97670.34;;;12.84;85.28
75317;BME280;63913;51.492;10.368;2023-05-10T06:24:02;97663.47;;;12.84;85.47
75317;BME280;63913;51.492;10.368;2023-05-10T06:26:28;97674.66;;;12.94;86.44
75317;BME280;63913;51.492;10.368;2023-05-10T06:28:53;97676.38;;;13.01;86.21
75317;BME280;63913;51.492;10.368;2023-05-10T06:31:19;97673.78;;;13.07;86.46
75317;BME280;63913;51.492;10.368;2023-05-10T06:33:44;97676.38;;;13.09;86.47
75317;BME280;63913;51.492;10.368;2023-05-10T06:36:09;97682.38;;;12.98;85.53
75317;BME280;63913;51.492;10.368;2023-05-10T06:38:35;97682.38;;;13.00;86.62
75317;BME280;63913;51.492;10.368;2023-05-10T06:41:00;97684.09;;;13.06;86.42
75317;BME280;63913;51.492;10.368;2023-05-10T06:43:25;97686.72;;;13.15;86.28
75317;BME280;63913;51.492;10.368;2023-05-10T06:45:51;97678.97;;;13.21;86.28
75317;BME280;63913;51.492;10.368;2023-05-10T06:48:17;97700.47;;;13.24;85.69
75317;BME280;63913;51.492;10.368;2023-05-10T06:50:42;97686.72;;;13.28;86.69
75317;BME280;63913;51.492;10.368;2023-05-10T06:53:07;97696.19;;;13.29;85.81
75317;BME280;63913;51.492;10.368;2023-05-10T06:55:33;97697.88;;;13.30;86.35
75317;BME280;63913;51.492;10.368;2023-05-10T06:57:58;97697.03;;;13.25;86.63
75317;BME280;63913;51.492;10.368;2023-05-10T07:00:24;97705.63;;;13.35;86.59
75317;BME280;63913;51.492;10.368;2023-05-10T07:02:49;97700.47;;;13.36;86.66
75317;BME280;63913;51.492;10.368;2023-05-10T07:05:15;97702.19;;;13.38;86.99
75317;BME280;63913;51.492;10.368;2023-05-10T07:07:40;97706.47;;;13.40;86.85
75317;BME280;63913;51.492;10.368;2023-05-10T07:10:06;97706.47;;;13.43;87.34
75317;BME280;63913;51.492;10.368;2023-05-10T07:12:33;97709.03;;;13.48;86.82
75317;BME280;63913;51.492;10.368;2023-05-10T07:14:58;97712.47;;;13.48;86.92
75317;BME280;63913;51.492;10.368;2023-05-10T07:17:23;97713.38;;;13.44;86.90
75317;BME280;63913;51.492;10.368;2023-05-10T07:19:49;97718.53;;;13.44;87.32
75317;BME280;63913;51.492;10.368;2023-05-10T07:22:15;97713.34;;;13.40;87.19
75317;BME280;63913;51.492;10.368;2023-05-10T07:24:41;97718.50;;;13.38;86.93
75317;BME280;63913;51.492;10.368;2023-05-10T07:27:07;97717.66;;;13.31;86.64
75317;BME280;63913;51.492;10.368;2023-05-10T07:29:33;97717.69;;;13.34;87.04
75317;BME280;63913;51.492;10.368;2023-05-10T07:31:58;97720.25;;;13.39;87.63
75317;BME280;63913;51.492;10.368;2023-05-10T07:34:23;97728.84;;;13.43;87.03
75317;BME280;63913;51.492;10.368;2023-05-10T07:36:49;97730.59;;;13.45;87.09
75317;BME280;63913;51.492;10.368;2023-05-10T07:39:14;97740.91;;;13.34;88.34
75317;BME280;63913;51.492;10.368;2023-05-10T07:41:40;97740.06;;;13.25;88.36
75317;BME280;63913;51.492;10.368;2023-05-10T07:44:05;97741.78;;;13.29;88.73
75317;BME280;63913;51.492;10.368;2023-05-10T07:46:31;97744.38;;;13.18;89.08
75317;BME280;63913;51.492;10.368;2023-05-10T07:48:56;97746.94;;;13.17;89.17
75317;BME280;63913;51.492;10.368;2023-05-10T07:51:22;97741.78;;;13.20;89.46
75317;BME280;63913;51.492;10.368;2023-05-10T07:53:47;97749.53;;;13.20;89.61
75317;BME280;63913;51.492;10.368;2023-05-10T07:56:27;97745.22;;;13.25;89.79
75317;BME280;63913;51.492;10.368;2023-05-10T07:59:02;97748.66;;;13.30;90.28
75317;BME280;63913;51.492;10.368;2023-05-10T08:01:33;97748.66;;;13.30;89.38
75317;BME280;63913;51.492;10.368;2023-05-10T08:04:00;97757.25;;;13.23;89.59
75317;BME280;63913;51.492;10.368;2023-05-10T08:06:26;97763.28;;;13.26;89.25
75317;BME280;63913;51.492;10.368;2023-05-10T08:08:55;97762.44;;;13.20;88.98
75317;BME280;63913;51.492;10.368;2023-05-10T08:11:21;97776.19;;;13.19;89.47
75317;BME280;63913;51.492;10.368;2023-05-10T08:13:48;97769.31;;;13.19;89.15
75317;BME280;63913;51.492;10.368;2023-05-10T08:16:13;97786.53;;;13.19;89.41
75317;BME280;63913;51.492;10.368;2023-05-10T08:18:39;97780.47;;;13.12;89.55
75317;BME280;63913;51.492;10.368;2023-05-10T08:21:05;97789.97;;;13.13;89.46
75317;BME280;63913;51.492;10.368;2023-05-10T08:23:30;97785.63;;;13.11;89.53
75317;BME280;63913;51.492;10.368;2023-05-10T08:25:56;97792.53;;;13.15;89.25
75317;BME280;63913;51.492;10.368;2023-05-10T08:28:21;97789.97;;;13.18;88.69
75317;BME280;63913;51.492;10.368;2023-05-10T08:30:47;97783.94;;;13.22;88.30
75317;BME280;63913;51.492;10.368;2023-05-10T08:33:12;97790.84;;;13.27;87.38
75317;BME280;63913;51.492;10.368;2023-05-10T08:35:38;97787.38;;;13.30;88.13
75317;BME280;63913;51.492;10.368;2023-05-10T08:38:03;97790.84;;;13.35;88.18
75317;BME280;63913;51.492;10.368;2023-05-10T08:40:28;97792.53;;;13.41;88.80
75317;BME280;63913;51.492;10.368;2023-05-10T08:42:58;97798.56;;;13.41;87.90
75317;BME280;63913;51.492;10.368;2023-05-10T08:45:25;97800.31;;;13.38;87.46
75317;BME280;63913;51.492;10.368;2023-05-10T08:47:52;97803.72;;;13.38;87.65
75317;BME280;63913;51.492;10.368;2023-05-10T08:50:20;97813.22;;;13.33;87.83
75317;BME280;63913;51.492;10.368;2023-05-10T08:52:47;97820.09;;;13.35;87.51
75317;BME280;63913;51.492;10.368;2023-05-10T08:55:14;97820.97;;;13.28;86.37
75317;BME280;63913;51.492;10.368;2023-05-10T08:57:40;97820.06;;;13.23;86.49
75317;BME280;63913;51.492;10.368;2023-05-10T09:00:06;97828.69;;;13.33;87.39
75317;BME280;63913;51.492;10.368;2023-05-10T09:02:33;97826.97;;;13.26;86.85
75317;BME280;63913;51.492;10.368;2023-05-10T09:04:59;97823.53;;;13.30;86.85
75317;BME280;63913;51.492;10.368;2023-05-10T09:07:25;97832.13;;;13.38;87.69
75317;BME280;63913;51.492;10.368;2023-05-10T09:09:51;97830.41;;;13.46;87.39
75317;BME280;63913;51.492;10.368;2023-05-10T09:12:17;97836.44;;;13.54;87.40
75317;BME280;63913;51.492;10.368;2023-05-10T09:14:43;97833.84;;;13.56;86.55
75317;BME280;63913;51.492;10.368;2023-05-10T09:17:09;97840.75;;;13.61;86.78
75317;BME280;63913;51.492;10.368;2023-05-10T09:19:35;97841.63;;;13.60;85.64
75317;BME280;63913;51.492;10.368;2023-05-10T09:22:00;97848.50;;;13.66;86.47
75317;BME280;63913;51.492;10.368;2023-05-10T09:24:29;97845.94;;;13.69;85.77
75317;BME280;63913;51.492;10.368;2023-05-10T09:26:56;97846.78;;;13.74;86.72
75317;BME280;63913;51.492;10.368;2023-05-10T09:29:22;97848.50;;;13.77;86.30
75317;BME280;63913;51.492;10.368;2023-05-10T09:31:51;97849.34;;;13.79;84.81
75317;BME280;63913;51.492;10.368;2023-05-10T09:34:19;97849.34;;;13.83;85.03
75317;BME280;63913;51.492;10.368;2023-05-10T09:37:00;97856.25;;;13.86;85.36
75317;BME280;63913;51.492;10.368;2023-05-10T09:39:36;97856.22;;;13.89;85.25
75317;BME280;63913;51.492;10.368;2023-05-10T09:42:06;97859.69;;;13.94;84.68
75317;BME280;63913;51.492;10.368;2023-05-10T09:44:33;97863.09;;;13.99;84.04
75317;BME280;63913;51.492;10.368;2023-05-10T09:47:00;97864.81;;;14.06;83.72
75317;BME280;63913;51.492;10.368;2023-05-10T09:49:26;97861.38;;;14.08;83.52
75317;BME280;63913;51.492;10.368;2023-05-10T09:52:03;97869.94;;;14.21;83.03
75317;BME280;63913;51.492;10.368;2023-05-10T09:54:29;97865.63;;;14.34;81.22
75317;BME280;63913;51.492;10.368;2023-05-10T09:56:54;97860.47;;;14.38;80.36
75317;BME280;63913;51.492;10.368;2023-05-10T09:59:19;97868.19;;;14.35;78.52
75317;BME280;63913;51.492;10.368;2023-05-10T10:01:51;97858.69;;;14.37;80.16
75317;BME280;63913;51.492;10.368;2023-05-10T10:04:19;97861.31;;;14.40;79.55
75317;BME280;63913;51.492;10.368;2023-05-10T10:06:45;97861.28;;;14.46;80.05
75317;BME280;63913;51.492;10.368;2023-05-10T10:09:11;97863.03;;;14.47;79.47
75317;BME280;63913;51.492;10.368;2023-05-10T10:11:37;97865.59;;;14.47;78.57
75317;BME280;63913;51.492;10.368;2023-05-10T10:14:03;97875.13;;;14.42;78.95
75317;BME280;63913;51.492;10.368;2023-05-10T10:16:29;97865.63;;;14.40;79.34
75317;BME280;63913;51.492;10.368;2023-05-10T10:18:55;97867.34;;;14.35;79.50
75317;BME280;63913;51.492;10.368;2023-05-10T10:21:21;97870.78;;;14.32;79.74
75317;BME280;63913;51.492;10.368;2023-05-10T10:23:48;97883.75;;;14.25;79.68
75317;BME280;63913;51.492;10.368;2023-05-10T10:26:14;97883.72;;;14.29;80.81
75317;BME280;63913;51.492;10.368;2023-05-10T10:28:50;97888.91;;;14.31;80.03
75317;BME280;63913;51.492;10.368;2023-05-10T10:31:26;97887.16;;;14.37;79.35
75317;BME280;63913;51.492;10.368;2023-05-10T10:34:00;97881.16;;;14.40;80.04
75317;BME280;63913;51.492;10.368;2023-05-10T10:36:27;97885.44;;;14.45;79.76
75317;BME280;63913;51.492;10.368;2023-05-10T10:38:56;97882.84;;;14.50;80.09
75317;BME280;63913;51.492;10.368;2023-05-10T10:41:33;97888.03;;;14.50;79.38
75317;BME280;63913;51.492;10.368;2023-05-10T10:44:27;97881.13;;;14.44;78.51
75317;BME280;63913;51.492;10.368;2023-05-10T10:47:21;97886.31;;;14.40;79.03
75317;BME280;63913;51.492;10.368;2023-05-10T10:50:12;97890.59;;;14.38;78.96
75317;BME280;63913;51.492;10.368;2023-05-10T10:52:45;97888.88;;;14.37;79.83
75317;BME280;63913;51.492;10.368;2023-05-10T10:55:20;97900.09;;;14.30;81.32
75317;BME280;63913;51.492;10.368;2023-05-10T10:57:56;97896.66;;;14.32;81.95
75317;BME280;63913;51.492;10.368;2023-05-10T11:00:35;97897.53;;;14.39;81.82
75317;BME280;63913;51.492;10.368;2023-05-10T11:03:12;97899.19;;;14.52;82.29
75317;BME280;63913;51.492;10.368;2023-05-10T11:05:48;97900.91;;;14.61;80.71
75317;BME280;63913;51.492;10.368;2023-05-10T11:11:02;97898.25;;;14.79;81.46
75317;BME280;63913;51.492;10.368;2023-05-10T11:13:41;97894.78;;;14.86;78.35
75317;BME280;63913;51.492;10.368;2023-05-10T11:16:11;97895.59;;;14.93;76.18
75317;BME280;63913;51.492;10.368;2023-05-10T11:18:37;97900.78;;;14.99;74.75
75317;BME280;63913;51.492;10.368;2023-05-10T11:21:03;97899.88;;;15.07;76.28
75317;BME280;63913;51.492;10.368;2023-05-10T11:23:54;97895.50;;;15.11;74.94
75317;BME280;63913;51.492;10.368;2023-05-10T11:26:25;97909.28;;;15.19;74.37
75317;BME280;63913;51.492;10.368;2023-05-10T11:28:53;97895.44;;;15.23;73.11
75317;BME280;63913;51.492;10.368;2023-05-10T11:31:21;97899.78;;;15.22;74.04
75317;BME280;63913;51.492;10.368;2023-05-10T11:33:51;97900.59;;;15.27;73.59
75317;BME280;63913;51.492;10.368;2023-05-10T11:36:35;97898.75;;;15.48;73.14
75317;BME280;63913;51.492;10.368;2023-05-10T11:39:01;97900.41;;;15.64;73.22
75317;BME280;63913;51.492;10.368;2023-05-10T11:41:29;97906.38;;;15.71;71.07
75317;BME280;63913;51.492;10.368;2023-05-10T11:43:56;97903.75;;;15.74;71.87
75317;BME280;63913;51.492;10.368;2023-05-10T11:46:26;97904.66;;;15.71;71.05
75317;BME280;63913;51.492;10.368;2023-05-10T11:49:02;97911.56;;;15.72;70.11
75317;BME280;63913;51.492;10.368;2023-05-10T11:51:29;97908.94;;;15.74;69.84
75317;BME280;63913;51.492;10.368;2023-05-10T11:53:58;97915.91;;;15.65;70.31
75317;BME280;63913;51.492;10.368;2023-05-10T11:56:23;97913.41;;;15.53;71.25
75317;BME280;63913;51.492;10.368;2023-05-10T11:58:57;97909.94;;;15.50;69.99
75317;BME280;63913;51.492;10.368;2023-05-10T12:01:24;97918.63;;;15.43;71.08
75317;BME280;63913;51.492;10.368;2023-05-10T12:03:51;97918.66;;;15.38;70.33
75317;BME280;63913;51.492;10.368;2023-05-10T12:06:18;97927.31;;;15.36;71.17
75317;BME280;63913;51.492;10.368;2023-05-10T12:08:46;97927.31;;;15.36;71.48
75317;BME280;63913;51.492;10.368;2023-05-10T12:11:12;97920.41;;;15.35;71.11
75317;BME280;63913;51.492;10.368;2023-05-10T12:13:42;97927.31;;;15.34;71.84
75317;BME280;63913;51.492;10.368;2023-05-10T12:16:17;97930.78;;;15.33;71.52
75317;BME280;63913;51.492;10.368;2023-05-10T12:18:43;97935.06;;;15.39;72.43
75317;BME280;63913;51.492;10.368;2023-05-10T12:21:10;97923.81;;;15.43;73.09
75317;BME280;63913;51.492;10.368;2023-05-10T12:23:37;97925.53;;;15.48;71.82
75317;BME280;63913;51.492;10.368;2023-05-10T12:26:03;97912.53;;;15.51;70.62
75317;BME280;63913;51.492;10.368;2023-05-10T12:28:32;97912.50;;;15.63;70.88
75317;BME280;63913;51.492;10.368;2023-05-10T12:30:59;97924.41;;;15.83;71.17
75317;BME280;63913;51.492;10.368;2023-05-10T12:33:24;97907.94;;;15.91;70.04
75317;BME280;63913;51.492;10.368;2023-05-10T12:35:52;97925.06;;;16.11;70.84
75317;BME280;63913;51.492;10.368;2023-05-10T12:40:50;97922.31;;;16.24;68.90
75317;BME280;63913;51.492;10.368;2023-05-10T12:43:15;97911.88;;;16.32;69.54
75317;BME280;63913;51.492;10.368;2023-05-10T12:45:41;97920.50;;;16.35;68.84
75317;BME280;63913;51.492;10.368;2023-05-10T12:48:06;97918.78;;;16.34;67.06
75317;BME280;63913;51.492;10.368;2023-05-10T12:50:31;97918.78;;;16.36;67.66
75317;BME280;63913;51.492;10.368;2023-05-10T12:52:57;97921.44;;;16.27;66.38
75317;BME280;63913;51.492;10.368;2023-05-10T12:55:22;97924.06;;;16.24;65.51
75317;BME280;63913;51.492;10.368;2023-05-10T12:57:47;97928.38;;;16.26;67.03
75317;BME280;63913;51.492;10.368;2023-05-10T13:00:13;97931.84;;;16.25;67.21
75317;BME280;63913;51.492;10.368;2023-05-10T13:02:39;97937.03;;;16.25;67.06
75317;BME280;63913;51.492;10.368;2023-05-10T13:05:05;97939.53;;;16.33;68.18
75317;BME280;63913;51.492;10.368;2023-05-10T13:07:30;97948.25;;;16.29;66.82
75317;BME280;63913;51.492;10.368;2023-05-10T13:09:56;97945.69;;;16.23;66.43